Time;durP1;ratioP1;P1;durP2;ratioP2;P2;SDS_P1;SDS_P2;PMS_P1;PMS_P2;Temp;Humidity;BMP_temperature;BMP_pressure;BME280_temperature;BME280_humidity;BME280_pressure;Samples;Min_cycle;Max_cycle;Signal;HPM_P1;HPM_P2
2022/07/20 00:01:57;;;;;;;;;;;;;;;16.73;61.49;101308.44;5044309;28;981;-59
2022/07/20 00:04:22;;;;;;;;;;;;;;;15.93;63.99;101315.56;5043783;28;1065;-59
2022/07/20 00:06:48;;;;;;;;;;;;;;;18.27;60.18;101308.50;5048384;28;1184;-59
2022/07/20 00:11:57;;;;;;;;;;;;;;;17.55;54.05;101307.38;5045125;28;1243;-59
2022/07/20 00:14:23;;;;;;;;;;;;;;;17.46;52.49;101301.56;5040685;28;1060;-59
2022/07/20 00:16:48;;;;;;;;;;;;;;;17.37;51.49;101300.41;5042130;28;1183;-59
2022/07/20 00:19:14;;;;;;;;;;;;;;;17.25;50.72;101297.84;5038691;28;1913;-59
2022/07/20 00:21:40;;;;;;;;;;;;;;;17.85;52.35;101303.09;5041135;28;1052;-59
2022/07/20 00:24:06;;;;;;;;;;;;;;;15.60;59.85;101300.84;5040340;28;890;-59
2022/07/20 00:26:31;;;;;;;;;;;;;;;17.27;59.05;101304.72;5039568;28;1006;-59
2022/07/20 00:28:56;;;;;;;;;;;;;;;18.96;56.68;101303.59;5040649;28;1053;-59
2022/07/20 00:31:22;;;;;;;;;;;;;;;14.92;65.14;101304.53;5031616;28;1002;-59
2022/07/20 00:33:48;;;;;;;;;;;;;;;18.25;59.35;101305.16;5037560;28;1144;-60
2022/07/20 00:36:14;;;;;;;;;;;;;;;16.67;61.84;101290.25;5042606;28;1083;-60
2022/07/20 00:38:39;;;;;;;;;;;;;;;16.13;60.66;101295.75;5043041;28;1984;-59
2022/07/20 00:41:05;;;;;;;;;;;;;;;17.00;54.79;101293.00;5045814;28;1053;-60
2022/07/20 00:43:49;;;;;;;;;;;;;;;17.09;52.58;101284.00;5038440;28;1035;-60
2022/07/20 00:46:14;;;;;;;;;;;;;;;18.17;54.96;101291.94;5043505;28;1175;-59
2022/07/20 00:48:39;;;;;;;;;;;;;;;17.60;54.11;101288.97;5039846;28;1026;-59
2022/07/20 00:51:05;;;;;;;;;;;;;;;17.50;51.99;101282.59;5040795;28;1147;-59
2022/07/20 00:53:30;;;;;;;;;;;;;;;17.26;51.08;101272.84;5020153;28;1172;-59
2022/07/20 00:55:56;;;;;;;;;;;;;;;17.68;51.55;101284.03;5037682;28;1163;-59
2022/07/20 00:58:21;;;;;;;;;;;;;;;16.11;57.96;101284.22;5042700;28;1922;-59
2022/07/20 01:00:47;;;;;;;;;;;;;;;17.17;58.83;101284.63;5043394;28;946;-59
2022/07/20 01:03:12;;;;;;;;;;;;;;;19.14;56.04;101282.91;5046024;28;1062;-60
2022/07/20 01:05:38;;;;;;;;;;;;;;;15.08;63.38;101291.09;5043110;28;970;-59
2022/07/20 01:08:04;;;;;;;;;;;;;;;18.01;59.44;101284.75;5041984;28;974;-59
2022/07/20 01:10:29;;;;;;;;;;;;;;;17.24;60.04;101276.97;5041396;28;875;-59
2022/07/20 01:12:55;;;;;;;;;;;;;;;16.36;63.41;101276.25;5021314;28;979;-60
2022/07/20 01:15:20;;;;;;;;;;;;;;;19.09;57.60;101273.81;5040310;28;1192;-59
2022/07/20 01:17:46;;;;;;;;;;;;;;;15.44;63.91;101270.50;5037807;28;1914;-59
2022/07/20 01:20:14;;;;;;;;;;;;;;;17.62;60.67;101274.94;5036975;28;1240;-59
2022/07/20 01:22:39;;;;;;;;;;;;;;;18.09;59.03;101270.44;5041231;28;1137;-59
2022/07/20 01:25:05;;;;;;;;;;;;;;;15.88;64.89;101272.47;5038300;28;1030;-59
2022/07/20 01:27:32;;;;;;;;;;;;;;;18.89;58.78;101270.00;5039028;28;1184;-59
2022/07/20 01:29:58;;;;;;;;;;;;;;;15.85;63.44;101281.19;5036924;28;986;-59
2022/07/20 01:32:23;;;;;;;;;;;;;;;16.62;58.81;101279.25;5037944;28;1148;-59
2022/07/20 01:34:49;;;;;;;;;;;;;;;17.20;53.93;101270.34;5046653;28;847;-59
2022/07/20 01:37:14;;;;;;;;;;;;;;;17.23;52.27;101267.06;5041641;28;1534;-60
2022/07/20 01:39:40;;;;;;;;;;;;;;;17.14;51.38;101268.63;5045957;28;1901;-59
2022/07/20 01:42:05;;;;;;;;;;;;;;;17.24;50.35;101263.22;5040717;28;986;-59
2022/07/20 01:44:30;;;;;;;;;;;;;;;17.71;52.24;101273.34;5043600;28;1144;-59
2022/07/20 01:46:56;;;;;;;;;;;;;;;16.68;56.03;101271.88;5036380;28;1076;-59
2022/07/20 01:49:21;;;;;;;;;;;;;;;16.37;60.04;101271.59;5040263;28;1022;-59
2022/07/20 01:51:47;;;;;;;;;;;;;;;18.61;56.87;101271.34;5037790;28;1065;-59
2022/07/20 01:54:12;;;;;;;;;;;;;;;15.05;62.55;101263.13;5037049;28;1057;-59
2022/07/20 01:56:41;;;;;;;;;;;;;;;17.82;59.94;101267.88;5036916;28;1139;-59
2022/07/20 01:59:06;;;;;;;;;;;;;;;17.63;58.35;101260.13;5019628;28;1914;-59
2022/07/20 02:01:32;;;;;;;;;;;;;;;15.84;65.03;101271.31;5046162;28;954;-59
2022/07/20 02:03:57;;;;;;;;;;;;;;;18.86;58.15;101264.16;5042812;28;994;-59
2022/07/20 02:06:23;;;;;;;;;;;;;;;15.54;62.91;101261.59;5042310;28;966;-58
2022/07/20 02:08:48;;;;;;;;;;;;;;;17.25;61.34;101268.44;5042586;28;998;-59
2022/07/20 02:11:14;;;;;;;;;;;;;;;18.20;58.00;101268.53;5038900;28;1072;-59
2022/07/20 02:13:39;;;;;;;;;;;;;;;14.93;65.53;101269.75;5041454;28;1203;-59
2022/07/20 02:16:17;;;;;;;;;;;;;;;18.36;59.66;101272.16;5035974;28;850;-59
2022/07/20 02:18:57;;;;;;;;;;;;;;;15.60;63.00;101273.44;5021320;28;1910;-59
2022/07/20 02:21:22;;;;;;;;;;;;;;;17.19;61.41;101277.75;5035841;28;986;-59
2022/07/20 02:23:48;;;;;;;;;;;;;;;17.91;58.23;101263.53;5037264;28;1108;-59
2022/07/20 02:26:13;;;;;;;;;;;;;;;15.21;66.24;101282.53;5039706;28;1069;-59
2022/07/20 02:28:39;;;;;;;;;;;;;;;18.55;59.46;101280.69;5037404;28;1037;-59
2022/07/20 02:31:05;;;;;;;;;;;;;;;15.66;62.99;101276.00;5038072;28;1129;-59
2022/07/20 02:33:30;;;;;;;;;;;;;;;16.90;62.19;101269.03;5035706;28;1049;-59
2022/07/20 02:35:56;;;;;;;;;;;;;;;18.15;58.76;101285.06;5038165;28;962;-59
2022/07/20 02:38:21;;;;;;;;;;;;;;;14.62;65.63;101282.94;5045021;28;1906;-59
2022/07/20 02:40:46;;;;;;;;;;;;;;;18.12;60.28;101283.69;5041835;28;997;-58
2022/07/20 02:43:12;;;;;;;;;;;;;;;16.23;61.72;101276.69;5045494;28;1034;-59
2022/07/20 02:45:37;;;;;;;;;;;;;;;16.74;64.28;101288.09;5043628;28;1006;-59
2022/07/20 02:48:03;;;;;;;;;;;;;;;18.51;58.64;101285.09;5045926;28;1141;-59
2022/07/20 02:50:29;;;;;;;;;;;;;;;14.91;64.25;101274.69;5041781;28;1069;-59
2022/07/20 02:52:55;;;;;;;;;;;;;;;17.82;61.37;101289.88;5043121;28;1290;-59
2022/07/20 02:55:20;;;;;;;;;;;;;;;16.93;60.60;101279.50;5040900;28;1077;-59
2022/07/20 02:57:46;;;;;;;;;;;;;;;16.11;65.17;101295.22;5040400;28;1203;-59
2022/07/20 03:00:11;;;;;;;;;;;;;;;18.55;59.23;101289.81;5039261;28;946;-60
2022/07/20 03:02:37;;;;;;;;;;;;;;;15.15;63.74;101286.25;5045358;28;1034;-59
2022/07/20 03:05:02;;;;;;;;;;;;;;;17.63;62.09;101290.34;5049407;28;990;-59
2022/07/20 03:07:28;;;;;;;;;;;;;;;17.84;58.86;101296.78;5045054;28;994;-59
2022/07/20 03:09:53;;;;;;;;;;;;;;;15.23;66.13;101302.28;5046345;28;1005;-59
2022/07/20 03:12:18;;;;;;;;;;;;;;;18.44;60.01;101296.41;5044066;28;896;-59
2022/07/20 03:14:44;;;;;;;;;;;;;;;17.71;57.63;101292.59;5042524;28;1028;-59
2022/07/20 03:17:09;;;;;;;;;;;;;;;17.58;54.69;101293.06;5043639;28;1073;-58
2022/07/20 03:19:35;;;;;;;;;;;;;;;17.45;52.78;101297.16;5040672;28;1985;-58
2022/07/20 03:22:00;;;;;;;;;;;;;;;17.32;51.82;101297.59;5043036;28;1062;-57
2022/07/20 03:24:25;;;;;;;;;;;;;;;17.31;50.81;101296.78;5041573;28;1288;-57
2022/07/20 03:26:51;;;;;;;;;;;;;;;17.33;50.74;101300.09;5041536;28;998;-57
2022/07/20 03:29:16;;;;;;;;;;;;;;;17.67;55.55;101310.72;5043376;28;1144;-58
2022/07/20 03:31:42;;;;;;;;;;;;;;;16.08;61.56;101307.50;5038658;28;1185;-59
2022/07/20 03:34:07;;;;;;;;;;;;;;;18.78;57.26;101306.88;5041366;28;1018;-60
2022/07/20 03:36:33;;;;;;;;;;;;;;;15.94;62.76;101307.09;5041003;28;966;-61
2022/07/20 03:38:58;;;;;;;;;;;;;;;16.64;58.21;101303.69;5039943;28;1914;-60
2022/07/20 03:41:23;;;;;;;;;;;;;;;17.17;53.45;101299.16;5038989;28;1200;-58
2022/07/20 03:43:49;;;;;;;;;;;;;;;17.19;52.04;101304.41;5045003;28;994;-59
2022/07/20 03:46:17;;;;;;;;;;;;;;;17.19;50.86;101298.91;5049259;28;1331;-59
2022/07/20 03:48:43;;;;;;;;;;;;;;;17.98;53.82;101302.63;5042953;28;846;-62
2022/07/20 03:51:08;;;;;;;;;;;;;;;17.55;52.71;101302.69;5039628;28;1209;-62
2022/07/20 03:53:34;;;;;;;;;;;;;;;17.40;51.33;101314.44;5040318;28;1224;-64
2022/07/20 03:55:59;;;;;;;;;;;;;;;17.38;50.40;101310.31;5041647;28;998;-66
2022/07/20 03:58:24;;;;;;;;;;;;;;;17.39;50.52;101310.03;5039737;28;1894;-64
2022/07/20 04:00:50;;;;;;;;;;;;;;;16.46;55.86;101308.44;5038831;28;907;-61
2022/07/20 04:03:15;;;;;;;;;;;;;;;16.77;58.76;101314.22;5037921;28;1231;-58
2022/07/20 04:05:41;;;;;;;;;;;;;;;19.02;55.71;101323.72;5037480;28;962;-59
2022/07/20 04:08:08;;;;;;;;;;;;;;;15.17;63.03;101325.22;5042182;28;930;-59
2022/07/20 04:10:34;;;;;;;;;;;;;;;18.01;58.99;101328.78;5037917;28;1002;-59
2022/07/20 04:12:59;;;;;;;;;;;;;;;17.75;58.85;101326.72;5034410;28;954;-60
2022/07/20 04:15:25;;;;;;;;;;;;;;;15.67;62.15;101328.91;5040009;28;986;-60
2022/07/20 04:17:50;;;;;;;;;;;;;;;16.95;54.66;101332.25;5037902;28;1985;-60
2022/07/20 04:20:16;;;;;;;;;;;;;;;17.12;52.16;101325.78;5042045;28;1223;-61
2022/07/20 04:22:41;;;;;;;;;;;;;;;17.17;51.04;101334.09;5033402;28;1037;-60
2022/07/20 04:25:07;;;;;;;;;;;;;;;18.47;54.32;101332.47;5037347;28;994;-58
2022/07/20 04:27:32;;;;;;;;;;;;;;;14.99;63.88;101335.31;5037581;28;1259;-59
2022/07/20 04:29:58;;;;;;;;;;;;;;;18.40;57.83;101334.66;5037958;28;1065;-59
2022/07/20 04:32:23;;;;;;;;;;;;;;;16.68;61.70;101338.59;5037172;28;1302;-59
2022/07/20 04:34:48;;;;;;;;;;;;;;;16.22;60.00;101333.47;5037035;28;1377;-58
2022/07/20 04:37:14;;;;;;;;;;;;;;;17.02;54.43;101327.34;5036479;28;1018;-59
2022/07/20 04:39:39;;;;;;;;;;;;;;;17.14;52.31;101318.09;5036683;28;1980;-59
2022/07/20 04:42:05;;;;;;;;;;;;;;;17.20;51.05;101322.56;5036928;28;1243;-59
2022/07/20 04:44:30;;;;;;;;;;;;;;;17.66;52.69;101322.81;5036494;28;1258;-60
2022/07/20 04:46:56;;;;;;;;;;;;;;;15.92;58.30;101331.19;5036658;28;1152;-60
2022/07/20 04:49:21;;;;;;;;;;;;;;;16.94;59.65;101330.59;5036314;28;1089;-60
2022/07/20 04:51:47;;;;;;;;;;;;;;;18.85;56.27;101334.16;5036550;28;1243;-59
2022/07/20 04:54:12;;;;;;;;;;;;;;;14.88;63.42;101328.03;5036347;28;1192;-60
2022/07/20 04:56:38;;;;;;;;;;;;;;;17.87;59.26;101337.50;5036396;28;1089;-60
2022/07/20 04:59:03;;;;;;;;;;;;;;;17.15;59.90;101341.75;5036515;28;1909;-59
2022/07/20 05:01:29;;;;;;;;;;;;;;;16.21;63.47;101337.28;5036534;28;1105;-59
2022/07/20 05:03:54;;;;;;;;;;;;;;;18.94;57.64;101343.56;5036569;28;1302;-60
2022/07/20 05:06:21;;;;;;;;;;;;;;;15.28;63.80;101342.59;5035884;28;1247;-59
2022/07/20 05:08:46;;;;;;;;;;;;;;;16.58;57.24;101333.84;5036842;28;1231;-59
2022/07/20 05:11:12;;;;;;;;;;;;;;;17.75;56.90;101345.97;5036840;28;1260;-60
2022/07/20 05:13:37;;;;;;;;;;;;;;;17.52;54.76;101340.91;5036143;28;1026;-59
2022/07/20 05:16:03;;;;;;;;;;;;;;;17.35;53.16;101336.41;5036439;28;1227;-60
2022/07/20 05:18:29;;;;;;;;;;;;;;;17.38;51.89;101335.88;5036333;28;1906;-59
2022/07/20 05:20:55;;;;;;;;;;;;;;;17.24;50.93;101332.75;5053047;28;1140;-58
2022/07/20 05:23:20;;;;;;;;;;;;;;;17.19;50.35;101337.38;5052870;28;1306;-59
2022/07/20 05:25:46;;;;;;;;;;;;;;;17.21;49.71;101333.28;5036384;28;1290;-60
2022/07/20 05:28:12;;;;;;;;;;;;;;;17.39;50.41;101334.78;5018252;28;1196;-61
2022/07/20 05:30:38;;;;;;;;;;;;;;;17.01;53.88;101346.84;5035944;28;1471;-61
2022/07/20 05:33:03;;;;;;;;;;;;;;;16.45;59.37;101341.66;5036354;28;1314;-61
2022/07/20 05:35:28;;;;;;;;;;;;;;;18.90;55.79;101348.81;5035525;28;1196;-60
2022/07/20 05:37:54;;;;;;;;;;;;;;;15.34;62.11;101347.91;5035530;28;1992;-60
2022/07/20 05:40:19;;;;;;;;;;;;;;;17.75;59.17;101354.22;5036141;28;1034;-57
2022/07/20 05:42:45;;;;;;;;;;;;;;;18.35;56.59;101353.91;5035625;28;1061;-58
2022/07/20 05:45:10;;;;;;;;;;;;;;;15.28;62.91;101353.56;5036025;28;1378;-58
2022/07/20 05:47:35;;;;;;;;;;;;;;;16.89;54.89;101358.03;5036024;28;1041;-58
2022/07/20 05:50:01;;;;;;;;;;;;;;;17.10;52.59;101354.34;5037224;28;1101;-58
2022/07/20 05:52:26;;;;;;;;;;;;;;;18.51;51.17;101360.31;5050769;28;1246;-58
2022/07/20 05:54:52;;;;;;;;;;;;;;;18.05;52.73;101355.47;5051118;28;1183;-58
2022/07/20 05:57:18;;;;;;;;;;;;;;;17.86;53.52;101346.03;5051457;28;1333;-58
2022/07/20 05:59:43;;;;;;;;;;;;;;;17.74;54.21;101352.56;5052261;28;1973;-58
2022/07/20 06:02:09;;;;;;;;;;;;;;;17.61;54.55;101347.53;5036100;28;1021;-59
2022/07/20 06:04:34;;;;;;;;;;;;;;;17.53;54.76;101337.03;5037337;28;1196;-59
2022/07/20 06:07:00;;;;;;;;;;;;;;;17.53;55.07;101339.78;5036512;28;1061;-59
2022/07/20 06:09:25;;;;;;;;;;;;;;;17.44;55.11;101340.28;5036909;28;1136;-60
2022/07/20 06:11:51;;;;;;;;;;;;;;;17.38;55.46;101341.34;5035978;28;1025;-57
2022/07/20 06:14:16;;;;;;;;;;;;;;;17.33;55.57;101338.56;5035638;28;1020;-60
2022/07/20 06:16:42;;;;;;;;;;;;;;;17.32;55.55;101336.94;5040910;28;1234;-60
2022/07/20 06:19:07;;;;;;;;;;;;;;;17.28;55.88;101336.63;5044892;28;1905;-58
2022/07/20 06:21:32;;;;;;;;;;;;;;;17.25;56.12;101336.31;5039316;28;1021;-59
2022/07/20 06:23:58;;;;;;;;;;;;;;;17.19;56.29;101345.63;5045908;28;1045;-65
2022/07/20 06:26:23;;;;;;;;;;;;;;;17.19;56.01;101338.19;5042837;28;1136;-60
2022/07/20 06:28:49;;;;;;;;;;;;;;;17.12;56.34;101337.59;5042789;28;1006;-61
2022/07/20 06:31:14;;;;;;;;;;;;;;;17.08;56.58;101337.31;5043360;28;975;-62
2022/07/20 06:33:40;;;;;;;;;;;;;;;17.11;56.12;101338.72;5040307;28;963;-62
2022/07/20 06:36:05;;;;;;;;;;;;;;;17.09;56.25;101343.63;5037589;28;1176;-64
2022/07/20 06:38:31;;;;;;;;;;;;;;;17.04;56.55;101343.56;5042788;28;1973;-64
2022/07/20 06:40:57;;;;;;;;;;;;;;;17.00;56.49;101346.03;5024199;28;1574;-63
2022/07/20 06:43:23;;;;;;;;;;;;;;;17.00;56.27;101343.28;5042452;28;1144;-66
2022/07/20 06:45:49;;;;;;;;;;;;;;;16.95;56.72;101340.50;5040506;28;1029;-62
2022/07/20 06:48:15;;;;;;;;;;;;;;;16.90;56.65;101332.19;5039930;28;1096;-63
2022/07/20 06:50:40;;;;;;;;;;;;;;;16.91;56.64;101336.63;5046035;28;966;-64
2022/07/20 06:53:06;;;;;;;;;;;;;;;16.88;56.74;101331.63;5028442;28;1314;-63
2022/07/20 06:55:31;;;;;;;;;;;;;;;16.85;56.72;101337.66;5049496;28;1029;-63
2022/07/20 06:57:57;;;;;;;;;;;;;;;16.85;56.77;101340.38;5043683;28;1897;-63
2022/07/20 07:00:23;;;;;;;;;;;;;;;16.82;56.79;101339.00;5040736;28;1164;-62
2022/07/20 07:02:48;;;;;;;;;;;;;;;16.75;56.96;101328.22;5042801;28;1014;-63
2022/07/20 07:05:14;;;;;;;;;;;;;;;16.79;56.72;101328.53;5036201;28;1259;-60
2022/07/20 07:07:39;;;;;;;;;;;;;;;16.74;57.10;101331.22;5031550;28;998;-63
2022/07/20 07:10:05;;;;;;;;;;;;;;;16.73;56.85;101335.06;5041056;28;1183;-64
2022/07/20 07:12:30;;;;;;;;;;;;;;;16.75;57.01;101346.63;5051067;28;1051;-62
2022/07/20 07:14:56;;;;;;;;;;;;;;;16.70;56.85;101336.41;5038767;28;1326;-65
2022/07/20 07:17:21;;;;;;;;;;;;;;;16.65;57.24;101339.13;5047366;28;1112;-64
2022/07/20 07:19:47;;;;;;;;;;;;;;;16.66;56.72;101338.03;5054466;28;1913;-64
2022/07/20 07:22:12;;;;;;;;;;;;;;;16.68;56.72;101327.59;5048203;28;1380;-63
2022/07/20 07:24:37;;;;;;;;;;;;;;;16.58;56.95;101324.78;5037862;28;1231;-65
2022/07/20 07:27:03;;;;;;;;;;;;;;;16.59;56.88;101323.66;5052417;28;1345;-64
2022/07/20 07:29:28;;;;;;;;;;;;;;;16.63;56.84;101324.00;5044473;28;1226;-64
2022/07/20 07:31:58;;;;;;;;;;;;;;;16.58;56.87;101330.28;5038670;28;1225;-63
2022/07/20 07:34:25;;;;;;;;;;;;;;;16.56;56.97;101330.53;5035424;28;1260;-62
2022/07/20 07:36:50;;;;;;;;;;;;;;;16.56;56.73;101326.94;5022275;28;1212;-64
2022/07/20 07:39:16;;;;;;;;;;;;;;;16.55;56.69;101328.03;5038064;28;2013;-63
2022/07/20 07:41:41;;;;;;;;;;;;;;;16.53;57.00;101327.47;5037942;28;1282;-63
2022/07/20 07:44:07;;;;;;;;;;;;;;;16.50;56.84;101333.47;5037951;28;1188;-62
2022/07/20 07:46:32;;;;;;;;;;;;;;;16.52;56.68;101336.78;5037105;28;1426;-64
2022/07/20 07:48:57;;;;;;;;;;;;;;;16.52;56.78;101334.03;5037764;28;1338;-61
2022/07/20 07:51:23;;;;;;;;;;;;;;;16.47;56.93;101331.25;5045003;28;1152;-61
2022/07/20 07:53:48;;;;;;;;;;;;;;;16.45;56.86;101330.69;5040930;28;1017;-61
2022/07/20 07:56:14;;;;;;;;;;;;;;;16.46;56.76;101329.59;5041644;28;1191;-61
2022/07/20 07:58:39;;;;;;;;;;;;;;;16.45;57.03;101334.25;5021420;28;1972;-61
2022/07/20 08:01:05;;;;;;;;;;;;;;;16.41;56.96;101311.13;5038764;28;1081;-60
2022/07/20 08:03:30;;;;;;;;;;;;;;;16.56;58.10;101326.94;5043448;28;942;-63
2022/07/20 08:05:55;;;;;;;;;;;;;;;16.55;58.21;101314.28;5044231;28;1100;-63
2022/07/20 08:08:21;;;;;;;;;;;;;;;16.53;58.17;101327.47;5038027;28;1215;-63
2022/07/20 08:10:46;;;;;;;;;;;;;;;16.49;57.98;101312.59;5037475;28;1042;-61
2022/07/20 08:13:12;;;;;;;;;;;;;;;16.49;57.79;101316.16;5038536;28;1243;-59
2022/07/20 08:15:37;;;;;;;;;;;;;;;16.50;57.45;101314.25;5038146;28;1140;-60
2022/07/20 08:18:03;;;;;;;;;;;;;;;16.43;57.26;101315.28;5040962;28;1987;-61
2022/07/20 08:20:28;;;;;;;;;;;;;;;16.42;57.24;101313.66;5040296;28;1034;-60
2022/07/20 08:22:54;;;;;;;;;;;;;;;16.43;57.29;101311.72;5034492;28;1227;-60
2022/07/20 08:25:19;;;;;;;;;;;;;;;16.45;57.12;101306.78;5019384;28;1295;-60
2022/07/20 08:27:45;;;;;;;;;;;;;;;16.39;57.47;101311.41;5037390;28;1318;-60
2022/07/20 08:30:11;;;;;;;;;;;;;;;16.42;57.15;101308.16;5039551;28;1228;-60
2022/07/20 08:32:36;;;;;;;;;;;;;;;16.37;57.48;101304.53;5037493;28;1157;-60
2022/07/20 08:35:02;;;;;;;;;;;;;;;16.38;57.10;101301.53;5043047;28;1188;-59
2022/07/20 08:37:29;;;;;;;;;;;;;;;16.36;57.28;101302.88;5039843;28;1065;-61
2022/07/20 08:39:54;;;;;;;;;;;;;;;16.35;56.94;101302.03;5040136;28;1983;-60
2022/07/20 08:42:20;;;;;;;;;;;;;;;16.37;57.03;101302.63;5038128;28;1061;-59
2022/07/20 08:44:45;;;;;;;;;;;;;;;16.36;57.01;101300.94;5020204;28;1137;-62
2022/07/20 08:47:11;;;;;;;;;;;;;;;16.28;57.10;101303.34;5043781;28;1175;-60
2022/07/20 08:49:37;;;;;;;;;;;;;;;16.31;57.00;101292.66;5043030;28;950;-61
2022/07/20 08:52:03;;;;;;;;;;;;;;;16.31;57.21;101289.91;5046733;28;1010;-61
2022/07/20 08:54:28;;;;;;;;;;;;;;;16.30;57.01;101282.78;5042645;28;1257;-61
2022/07/20 08:56:53;;;;;;;;;;;;;;;16.29;57.12;101283.88;5042965;28;1085;-60
2022/07/20 08:59:19;;;;;;;;;;;;;;;16.28;57.19;101276.72;5041621;28;1972;-59
2022/07/20 09:01:57;;;;;;;;;;;;;;;16.29;57.21;101285.78;5039395;28;994;-58
2022/07/20 09:04:22;;;;;;;;;;;;;;;16.25;57.17;101277.22;5037920;28;1037;-59
2022/07/20 09:06:48;;;;;;;;;;;;;;;16.28;57.25;101276.72;5038101;28;1128;-62
2022/07/20 09:09:14;;;;;;;;;;;;;;;16.28;57.28;101265.72;5038011;28;1124;-59
2022/07/20 09:11:39;;;;;;;;;;;;;;;16.24;57.13;101273.66;5043424;28;950;-61
2022/07/20 09:14:05;;;;;;;;;;;;;;;16.30;57.09;101263.56;5036229;28;1049;-62
2022/07/20 09:16:46;;;;;;;;;;;;;;;16.27;57.21;101263.25;5041696;28;998;-62
2022/07/20 09:19:13;;;;;;;;;;;;;;;16.25;57.24;101258.03;5040679;28;1981;-60
2022/07/20 09:21:38;;;;;;;;;;;;;;;16.29;57.23;101259.16;5019320;28;1065;-61
2022/07/20 09:24:04;;;;;;;;;;;;;;;16.25;57.10;101260.78;5036804;28;1053;-60
2022/07/20 09:26:29;;;;;;;;;;;;;;;16.25;56.97;101256.09;5041615;28;1000;-59
2022/07/20 09:28:56;;;;;;;;;;;;;;;16.23;57.16;101247.31;5035253;28;1436;-61
2022/07/20 09:31:22;;;;;;;;;;;;;;;16.18;57.11;101247.25;5036691;28;1038;-60
2022/07/20 09:36:36;;;;;;;;;;;;;;;16.21;57.29;101243.97;5036380;28;1204;-62
2022/07/20 09:39:05;;;;;;;;;;;;;;;16.21;57.28;101240.44;5036382;28;1969;-61
2022/07/20 09:41:30;;;;;;;;;;;;;;;16.22;57.23;101247.56;5036252;28;1112;-62
2022/07/20 09:43:57;;;;;;;;;;;;;;;16.21;57.08;101234.94;5035532;28;1138;-63
2022/07/20 09:46:23;;;;;;;;;;;;;;;17.42;56.62;101243.53;5034332;28;1109;-61
2022/07/20 09:48:49;;;;;;;;;;;;;;;16.99;57.71;101234.50;5036329;28;1065;-60
2022/07/20 09:51:22;;;;;;;;;;;;;;;16.75;58.23;101240.34;5035203;28;871;-60
2022/07/20 09:53:48;;;;;;;;;;;;;;;16.61;58.36;101228.16;5033646;28;1219;-61
2022/07/20 09:56:15;;;;;;;;;;;;;;;16.62;57.86;101224.31;5035700;28;1089;-61
2022/07/20 09:58:40;;;;;;;;;;;;;;;16.56;57.64;101217.13;5034674;28;1968;-61
2022/07/20 10:01:06;;;;;;;;;;;;;;;16.56;57.60;101217.13;5018362;28;1165;-61
2022/07/20 10:03:31;;;;;;;;;;;;;;;16.50;57.82;101220.94;5035982;28;1097;-61
2022/07/20 10:05:57;;;;;;;;;;;;;;;16.48;57.51;101215.69;5018279;28;963;-62
2022/07/20 10:08:22;;;;;;;;;;;;;;;16.50;57.53;101210.75;5036287;28;1025;-62
2022/07/20 10:10:47;;;;;;;;;;;;;;;16.46;57.55;101208.81;5018574;28;1096;-62
2022/07/20 10:13:13;;;;;;;;;;;;;;;16.44;57.70;101206.34;5036311;28;1065;-64
2022/07/20 10:15:51;;;;;;;;;;;;;;;16.40;57.51;101214.25;5035055;28;1023;-62
2022/07/20 10:18:17;;;;;;;;;;;;;;;16.39;57.62;101209.84;5046404;28;1918;-61
2022/07/20 10:20:42;;;;;;;;;;;;;;;16.40;57.54;101211.50;5040536;28;974;-60
2022/07/20 10:23:23;;;;;;;;;;;;;;;16.43;57.14;101213.72;5036441;28;1065;-59
2022/07/20 10:25:49;;;;;;;;;;;;;;;16.42;57.35;101201.13;5039107;28;990;-59
2022/07/20 10:28:27;;;;;;;;;;;;;;;16.38;57.28;101186.25;5041143;28;1023;-57
2022/07/20 10:30:56;;;;;;;;;;;;;;;16.37;57.25;101195.56;5035141;28;1199;-60
2022/07/20 10:33:23;;;;;;;;;;;;;;;16.38;57.35;101196.38;5036714;28;1143;-59
2022/07/20 10:35:49;;;;;;;;;;;;;;;16.35;57.42;101186.75;5018166;28;1220;-62
2022/07/20 10:38:18;;;;;;;;;;;;;;;16.35;57.45;101175.78;5035001;28;1967;-60
2022/07/20 10:44:05;;;;;;;;;;;;;;;16.33;57.24;101169.75;5035630;28;1180;-59
2022/07/20 10:46:33;;;;;;;;;;;;;;;16.36;57.37;101171.94;5033877;28;1212;-63
2022/07/20 10:48:59;;;;;;;;;;;;;;;16.36;57.35;101169.22;5035673;28;1302;-61
2022/07/20 10:51:24;;;;;;;;;;;;;;;16.38;57.19;101177.19;5041241;28;1312;-59
2022/07/20 10:53:50;;;;;;;;;;;;;;;16.34;57.24;101171.41;5031449;28;1275;-61
2022/07/20 10:56:15;;;;;;;;;;;;;;;16.38;57.07;101169.78;5034588;28;1176;-61
2022/07/20 10:58:41;;;;;;;;;;;;;;;16.32;57.19;101159.84;5017127;28;1910;-60
2022/07/20 11:01:08;;;;;;;;;;;;;;;16.33;57.18;101158.75;5035156;28;1189;-60
2022/07/20 11:03:45;;;;;;;;;;;;;;;16.31;57.17;101158.19;5034385;28;1212;-62
2022/07/20 11:06:18;;;;;;;;;;;;;;;16.29;57.47;101154.06;5017323;28;1208;-60
2022/07/20 11:08:48;;;;;;;;;;;;;;;16.31;57.36;101158.19;5036786;28;1246;-61
2022/07/20 11:11:17;;;;;;;;;;;;;;;16.32;57.35;101151.63;5038416;28;1247;-62
2022/07/20 11:13:43;;;;;;;;;;;;;;;16.31;57.51;101147.19;5036248;28;1156;-61
2022/07/20 11:16:09;;;;;;;;;;;;;;;16.29;57.40;101151.31;5040501;28;1284;-61
2022/07/20 11:18:34;;;;;;;;;;;;;;;16.29;57.33;101149.41;5049807;28;1987;-63
2022/07/20 11:21:00;;;;;;;;;;;;;;;16.28;57.31;101147.72;5026614;28;1054;-63
2022/07/20 11:23:26;;;;;;;;;;;;;;;16.25;57.37;101143.59;5043207;28;1077;-61
2022/07/20 11:25:53;;;;;;;;;;;;;;;16.30;57.33;101145.56;5044905;28;1112;-63
2022/07/20 11:28:19;;;;;;;;;;;;;;;16.31;57.23;101141.72;5043296;28;1199;-61
2022/07/20 11:30:45;;;;;;;;;;;;;;;16.13;57.77;101136.63;5045077;28;1321;-60
2022/07/20 11:33:10;;;;;;;;;;;;;;;16.07;58.08;101136.63;5037916;28;1149;-60
2022/07/20 11:35:38;;;;;;;;;;;;;;;16.30;57.47;101131.00;5038783;28;1081;-60
2022/07/20 11:38:03;;;;;;;;;;;;;;;16.25;57.66;101127.13;5038540;28;1123;-59
2022/07/20 11:40:29;;;;;;;;;;;;;;;16.24;57.58;101125.50;5037837;28;1906;-57
2022/07/20 11:43:07;;;;;;;;;;;;;;;16.28;57.53;101128.53;5038776;28;1022;-61
2022/07/20 11:45:33;;;;;;;;;;;;;;;16.29;57.33;101130.19;5038487;28;1163;-60
2022/07/20 11:47:58;;;;;;;;;;;;;;;16.26;57.50;101127.97;5032292;28;1069;-59
2022/07/20 11:50:24;;;;;;;;;;;;;;;17.24;57.36;101131.31;5038698;28;1018;-62
2022/07/20 11:52:50;;;;;;;;;;;;;;;17.08;58.22;101128.50;5020516;28;1050;-58
2022/07/20 11:55:15;;;;;;;;;;;;;;;16.79;58.58;101122.56;5040261;28;1026;-60
2022/07/20 11:57:41;;;;;;;;;;;;;;;16.72;58.29;101116.47;5039813;28;1100;-61
2022/07/20 12:00:07;;;;;;;;;;;;;;;16.66;58.28;101120.28;5038754;28;1969;-61
2022/07/20 12:02:37;;;;;;;;;;;;;;;16.63;57.97;101118.88;5037966;28;931;-61
2022/07/20 12:05:02;;;;;;;;;;;;;;;16.56;58.03;101127.38;5038450;28;1013;-60
2022/07/20 12:10:15;;;;;;;;;;;;;;;16.54;58.00;101117.75;5032790;28;986;-63
2022/07/20 12:12:47;;;;;;;;;;;;;;;16.50;57.79;101111.13;5043231;28;1199;-59
2022/07/20 12:15:13;;;;;;;;;;;;;;;16.45;57.72;101111.91;5036482;28;998;-62
2022/07/20 12:17:46;;;;;;;;;;;;;;;16.48;57.95;101105.06;5037914;28;1069;-60
2022/07/20 12:20:11;;;;;;;;;;;;;;;16.49;57.83;101109.47;5044099;28;1913;-59
2022/07/20 12:22:36;;;;;;;;;;;;;;;16.49;57.84;101098.47;5043088;28;1151;-60
2022/07/20 12:25:03;;;;;;;;;;;;;;;16.50;57.68;101108.38;5037657;28;1010;-58
2022/07/20 12:27:33;;;;;;;;;;;;;;;16.41;57.93;101106.13;5034385;28;1164;-60
2022/07/20 12:29:59;;;;;;;;;;;;;;;16.42;57.88;101099.56;5037870;28;1072;-59
2022/07/20 12:32:34;;;;;;;;;;;;;;;16.41;57.92;101105.28;5019956;28;1172;-60
2022/07/20 12:35:00;;;;;;;;;;;;;;;16.43;57.57;101106.69;5021210;28;1002;-58
2022/07/20 12:37:31;;;;;;;;;;;;;;;16.41;57.90;101103.38;5038942;28;1211;-61
2022/07/20 12:39:57;;;;;;;;;;;;;;;16.40;57.84;101103.66;5018967;28;1906;-60
2022/07/20 12:42:27;;;;;;;;;;;;;;;16.37;57.79;101091.28;5036318;28;931;-60
2022/07/20 12:44:59;;;;;;;;;;;;;;;16.34;57.89;101100.03;5036931;28;1417;-59
2022/07/20 12:47:25;;;;;;;;;;;;;;;16.33;57.74;101095.63;5037690;28;1112;-60
2022/07/20 12:49:50;;;;;;;;;;;;;;;16.32;57.58;101087.69;5037563;28;1211;-60
2022/07/20 12:52:16;;;;;;;;;;;;;;;16.33;57.93;101092.91;5036888;28;1210;-60
2022/07/20 12:54:41;;;;;;;;;;;;;;;16.34;57.91;101093.72;5037447;28;1167;-62